Time;durP1;ratioP1;P1;durP2;ratioP2;P2;SDS_P1;SDS_P2;PMS_P1;PMS_P2;Temp;Humidity;BMP_temperature;BMP_pressure;BME280_temperature;BME280_humidity;BME280_pressure;Samples;Min_cycle;Max_cycle;Signal;HPM_P1;HPM_P2
2022/09/09 00:01:09;;;;;;;;;;;15.30;99.90;;;;;;5048889;28;19992;-82
2022/09/09 00:03:46;;;;;;;;;;;15.40;99.90;;;;;;5032329;28;19921;-82
2022/09/09 00:06:31;;;;;;;;;;;15.40;99.90;;;;;;5033310;28;19928;-82
2022/09/09 00:09:14;;;;;;;;;;;15.30;99.90;;;;;;5031883;28;19921;-82
2022/09/09 00:11:42;;;;;;;;;;;15.30;99.90;;;;;;5032315;28;20325;-82
2022/09/09 00:14:13;;;;;;;;;;;15.30;99.90;;;;;;5048450;28;19967;-82
2022/09/09 00:16:40;;;;;;;;;;;15.30;99.90;;;;;;5051480;28;19920;-82
2022/09/09 00:19:35;;;;;;;;;;;15.30;99.90;;;;;;5051432;28;19924;-82
2022/09/09 00:22:14;;;;;;;;;;;15.30;99.90;;;;;;4982184;28;19932;-82
2022/09/09 00:24:50;;;;;;;;;;;15.30;99.90;;;;;;5051887;28;19983;-82
2022/09/09 00:27:18;;;;;;;;;;;15.30;99.90;;;;;;5051767;28;20021;-82
2022/09/09 00:29:53;;;;;;;;;;;15.30;99.90;;;;;;5051707;28;19927;-82
2022/09/09 00:32:19;;;;;;;;;;;15.30;99.90;;;;;;5051638;28;19920;-82
2022/09/09 00:34:48;;;;;;;;;;;15.30;99.90;;;;;;5051800;28;19925;-82
2022/09/09 00:37:13;;;;;;;;;;;15.20;99.90;;;;;;5051557;28;20348;-82
2022/09/09 00:39:41;;;;;;;;;;;15.20;99.90;;;;;;5035118;28;19924;-82
2022/09/09 00:42:26;;;;;;;;;;;15.20;99.90;;;;;;5052477;28;19924;-82
2022/09/09 00:45:15;;;;;;;;;;;15.20;99.90;;;;;;5051809;28;20382;-82
2022/09/09 00:47:42;;;;;;;;;;;15.20;99.90;;;;;;5051031;28;19927;-82
2022/09/09 00:50:25;;;;;;;;;;;15.20;99.90;;;;;;4991315;28;1721080;-82
2022/09/09 00:52:57;;;;;;;;;;;15.20;99.90;;;;;;5052356;28;19964;-82
2022/09/09 00:55:42;;;;;;;;;;;15.20;99.90;;;;;;5052492;28;19925;-82
2022/09/09 00:58:09;;;;;;;;;;;15.20;99.90;;;;;;5052196;28;19967;-82
2022/09/09 01:00:49;;;;;;;;;;;15.20;99.90;;;;;;5052400;28;19925;-82
2022/09/09 01:03:34;;;;;;;;;;;15.20;99.90;;;;;;5052316;28;19921;-82
2022/09/09 01:06:05;;;;;;;;;;;15.30;99.90;;;;;;5035372;28;20122;-82
2022/09/09 01:08:50;;;;;;;;;;;15.20;99.90;;;;;;5035728;28;19970;-82
2022/09/09 01:11:24;;;;;;;;;;;15.20;99.90;;;;;;5035136;28;19924;-82
2022/09/09 01:13:53;;;;;;;;;;;15.30;99.90;;;;;;5052018;28;19925;-82
2022/09/09 01:16:18;;;;;;;;;;;15.20;99.90;;;;;;5052219;28;19927;-82
2022/09/09 01:18:45;;;;;;;;;;;15.30;99.90;;;;;;5051901;28;19921;-82
2022/09/09 01:21:22;;;;;;;;;;;15.30;99.90;;;;;;5034663;28;20293;-82
2022/09/09 01:24:05;;;;;;;;;;;15.30;99.90;;;;;;5051968;28;20007;-82
2022/09/09 01:26:39;;;;;;;;;;;15.30;99.90;;;;;;5051727;28;20386;-82
2022/09/09 01:29:08;;;;;;;;;;;15.30;99.90;;;;;;5051968;28;19968;-82
2022/09/09 01:31:38;;;;;;;;;;;15.30;99.90;;;;;;5051562;28;19925;-82
2022/09/09 01:34:11;;;;;;;;;;;15.30;99.90;;;;;;5051816;28;19921;-82
2022/09/09 01:36:50;;;;;;;;;;;15.30;99.90;;;;;;5035095;28;19988;-82
2022/09/09 01:39:15;;;;;;;;;;;15.30;99.90;;;;;;5051565;28;19932;-82
2022/09/09 01:41:41;;;;;;;;;;;15.30;99.90;;;;;;5034519;28;19924;-82
2022/09/09 01:44:07;;;;;;;;;;;15.30;99.90;;;;;;5051519;28;19921;-82
2022/09/09 01:46:33;;;;;;;;;;;15.20;99.90;;;;;;5051620;28;19927;-82
2022/09/09 01:48:59;;;;;;;;;;;15.30;99.90;;;;;;5051322;28;19921;-82
2022/09/09 01:51:24;;;;;;;;;;;15.30;99.90;;;;;;5051258;28;19921;-82
2022/09/09 01:53:49;;;;;;;;;;;15.30;99.90;;;;;;5034719;28;19974;-82
2022/09/09 01:56:30;;;;;;;;;;;15.30;99.90;;;;;;5051030;28;19921;-82
2022/09/09 01:59:15;;;;;;;;;;;15.20;99.90;;;;;;5034995;28;19925;-82
2022/09/09 02:01:46;;;;;;;;;;;15.20;99.90;;;;;;5050958;28;19925;-82
2022/09/09 02:04:18;;;;;;;;;;;15.20;99.90;;;;;;5051093;28;19921;-82
2022/09/09 02:06:45;;;;;;;;;;;15.20;99.90;;;;;;5051450;28;20263;-82
2022/09/09 02:09:12;;;;;;;;;;;15.20;99.90;;;;;;5051238;28;19921;-82
2022/09/09 02:11:38;;;;;;;;;;;15.20;99.90;;;;;;5050687;28;19967;-82
2022/09/09 02:14:09;;;;;;;;;;;15.20;99.90;;;;;;5051103;28;19975;-82
2022/09/09 02:16:40;;;;;;;;;;;15.20;99.90;;;;;;5050927;28;19920;-82
2022/09/09 02:19:26;;;;;;;;;;;15.20;99.90;;;;;;5050956;28;20294;-82
2022/09/09 02:21:53;;;;;;;;;;;15.20;99.90;;;;;;5050761;28;20614;-82
2022/09/09 02:24:19;;;;;;;;;;;15.20;99.90;;;;;;5050621;28;19932;-82
2022/09/09 02:26:46;;;;;;;;;;;15.20;99.90;;;;;;5050902;28;19924;-82
2022/09/09 02:29:14;;;;;;;;;;;15.20;99.90;;;;;;5051057;28;19921;-82
2022/09/09 02:31:40;;;;;;;;;;;15.20;99.90;;;;;;5067400;28;19925;-83
2022/09/09 02:34:10;;;;;;;;;;;15.20;99.90;;;;;;5051870;28;19920;-82
2022/09/09 02:36:36;;;;;;;;;;;15.20;99.90;;;;;;5050632;28;19921;-82
2022/09/09 02:39:04;;;;;;;;;;;15.20;99.90;;;;;;5034065;28;19971;-82
2022/09/09 02:41:34;;;;;;;;;;;15.20;99.90;;;;;;5050589;28;19921;-82
2022/09/09 02:44:00;;;;;;;;;;;15.20;99.90;;;;;;5067488;28;19924;-82
2022/09/09 02:46:39;;;;;;;;;;;15.20;99.90;;;;;;5050488;28;19970;-82
2022/09/09 02:49:09;;;;;;;;;;;15.20;99.90;;;;;;5050210;28;20346;-82
2022/09/09 02:51:43;;;;;;;;;;;15.10;99.90;;;;;;5050367;28;19932;-82
2022/09/09 02:54:30;;;;;;;;;;;15.10;99.90;;;;;;5050414;28;19928;-82
2022/09/09 02:56:57;;;;;;;;;;;15.20;99.90;;;;;;5050561;28;19920;-82
2022/09/09 02:59:24;;;;;;;;;;;15.10;99.90;;;;;;5050675;28;19975;-82
2022/09/09 03:01:50;;;;;;;;;;;15.10;99.90;;;;;;5050278;28;19931;-82
2022/09/09 03:04:15;;;;;;;;;;;15.10;99.90;;;;;;5050604;28;19921;-82
2022/09/09 03:06:41;;;;;;;;;;;15.10;99.90;;;;;;5050739;28;20377;-82
2022/09/09 03:09:07;;;;;;;;;;;15.10;99.90;;;;;;5050451;28;20007;-82
2022/09/09 03:11:33;;;;;;;;;;;15.10;99.90;;;;;;5050268;28;19921;-82
2022/09/09 03:13:58;;;;;;;;;;;15.10;99.90;;;;;;5064830;28;19927;-82
2022/09/09 03:16:24;;;;;;;;;;;15.10;99.90;;;;;;5069243;28;20395;-82
2022/09/09 03:18:49;;;;;;;;;;;15.10;99.90;;;;;;5051932;28;19924;-82
2022/09/09 03:21:15;;;;;;;;;;;15.10;99.90;;;;;;5070130;28;19920;-82
2022/09/09 03:23:41;;;;;;;;;;;15.10;99.90;;;;;;5054036;28;20019;-82
2022/09/09 03:26:06;;;;;;;;;;;15.10;99.90;;;;;;5070192;28;20336;-82
2022/09/09 03:28:32;;;;;;;;;;;15.10;99.90;;;;;;5070632;28;19927;-82
2022/09/09 03:30:59;;;;;;;;;;;15.20;99.90;;;;;;5053236;28;19928;-82
2022/09/09 03:33:24;;;;;;;;;;;15.10;99.90;;;;;;5070107;28;19920;-82
2022/09/09 03:35:51;;;;;;;;;;;15.10;99.90;;;;;;5070126;28;19931;-82
2022/09/09 03:38:16;;;;;;;;;;;15.10;99.90;;;;;;5053593;28;19921;-82
2022/09/09 03:40:55;;;;;;;;;;;15.10;99.90;;;;;;5053171;28;19931;-82
2022/09/09 03:43:25;;;;;;;;;;;15.10;99.90;;;;;;5055083;28;19931;-82
2022/09/09 03:45:50;;;;;;;;;;;15.00;99.90;;;;;;5057176;28;19971;-82
2022/09/09 03:48:16;;;;;;;;;;;15.00;99.90;;;;;;5073512;28;19963;-82
2022/09/09 03:50:45;;;;;;;;;;;15.10;99.90;;;;;;5073654;28;20358;-82
2022/09/09 03:53:11;;;;;;;;;;;15.00;99.90;;;;;;5073551;28;19928;-82
2022/09/09 03:55:36;;;;;;;;;;;15.10;99.90;;;;;;5056598;28;19920;-82
2022/09/09 03:58:02;;;;;;;;;;;15.00;99.90;;;;;;5073877;28;19974;-82
2022/09/09 04:00:28;;;;;;;;;;;15.00;99.90;;;;;;5073569;28;19975;-82
2022/09/09 04:02:57;;;;;;;;;;;15.00;99.90;;;;;;5073076;28;19921;-82
2022/09/09 04:05:23;;;;;;;;;;;15.00;99.90;;;;;;5057020;28;20396;-82
2022/09/09 04:07:48;;;;;;;;;;;15.00;99.90;;;;;;5073489;28;19920;-82
2022/09/09 04:10:15;;;;;;;;;;;15.00;99.90;;;;;;5073071;28;19921;-82
2022/09/09 04:12:41;;;;;;;;;;;15.00;99.90;;;;;;5073047;28;20385;-81
2022/09/09 04:15:07;;;;;;;;;;;15.00;99.90;;;;;;5073211;28;19927;-82
2022/09/09 04:17:33;;;;;;;;;;;15.00;99.90;;;;;;5074439;28;19981;-82
2022/09/09 04:19:58;;;;;;;;;;;15.00;99.90;;;;;;5073301;28;20445;-82
2022/09/09 04:22:23;;;;;;;;;;;15.00;99.90;;;;;;5056387;28;19927;-82
2022/09/09 04:24:49;;;;;;;;;;;15.00;99.90;;;;;;5072716;28;19920;-82
2022/09/09 04:27:14;;;;;;;;;;;15.00;99.90;;;;;;5073192;28;19920;-82
2022/09/09 04:29:40;;;;;;;;;;;15.00;99.90;;;;;;5073133;28;19924;-82
2022/09/09 04:32:05;;;;;;;;;;;15.00;99.90;;;;;;5072447;28;19924;-82
2022/09/09 04:34:31;;;;;;;;;;;15.00;99.90;;;;;;5056363;28;20361;-82
2022/09/09 04:36:56;;;;;;;;;;;15.00;99.90;;;;;;5072824;28;19974;-82
2022/09/09 04:39:22;;;;;;;;;;;15.00;99.90;;;;;;5072467;28;19925;-82
2022/09/09 04:41:48;;;;;;;;;;;14.90;99.90;;;;;;5072446;28;20006;-82
2022/09/09 04:44:13;;;;;;;;;;;14.90;99.90;;;;;;5072752;28;19920;-82
2022/09/09 04:46:40;;;;;;;;;;;14.90;99.90;;;;;;5072462;28;19928;-82
2022/09/09 04:49:06;;;;;;;;;;;14.90;99.90;;;;;;5072484;28;19921;-82
2022/09/09 04:51:31;;;;;;;;;;;14.90;99.90;;;;;;5072666;28;19928;-82
2022/09/09 04:53:57;;;;;;;;;;;14.90;99.90;;;;;;5054580;28;19920;-82
2022/09/09 04:56:22;;;;;;;;;;;14.90;99.90;;;;;;5072068;28;19973;-82
2022/09/09 04:58:47;;;;;;;;;;;14.80;99.90;;;;;;5072731;28;19920;-82
2022/09/09 05:01:14;;;;;;;;;;;14.80;99.90;;;;;;5066661;28;20374;-82
2022/09/09 05:03:40;;;;;;;;;;;14.80;99.90;;;;;;5051584;28;20007;-82
2022/09/09 05:06:08;;;;;;;;;;;14.80;99.90;;;;;;5051600;28;19956;-82
2022/09/09 05:08:34;;;;;;;;;;;14.80;99.90;;;;;;5051769;28;19966;-82
2022/09/09 05:10:59;;;;;;;;;;;14.80;99.90;;;;;;5052836;28;19928;-82
2022/09/09 05:13:26;;;;;;;;;;;14.80;99.90;;;;;;5051771;28;19924;-82
2022/09/09 05:15:54;;;;;;;;;;;14.80;99.90;;;;;;5051520;28;20385;-82
2022/09/09 05:18:21;;;;;;;;;;;14.80;99.90;;;;;;5051376;28;19983;-82
2022/09/09 05:20:47;;;;;;;;;;;14.80;99.90;;;;;;5051423;28;19938;-82
2022/09/09 05:23:13;;;;;;;;;;;14.70;99.90;;;;;;5051276;28;19921;-81
2022/09/09 05:25:38;;;;;;;;;;;14.70;99.90;;;;;;5034866;28;19924;-82
2022/09/09 05:28:05;;;;;;;;;;;14.70;99.90;;;;;;5034883;28;19928;-82
2022/09/09 05:30:30;;;;;;;;;;;14.70;99.90;;;;;;5051589;28;20558;-82
2022/09/09 05:32:56;;;;;;;;;;;14.70;99.90;;;;;;5051082;28;20399;-82
2022/09/09 05:35:22;;;;;;;;;;;14.70;99.90;;;;;;5051127;28;20301;-82
2022/09/09 05:37:48;;;;;;;;;;;14.70;99.90;;;;;;5051046;28;19921;-82
2022/09/09 05:40:14;;;;;;;;;;;14.80;99.90;;;;;;5050967;28;19925;-82
2022/09/09 05:42:40;;;;;;;;;;;14.70;99.90;;;;;;5034487;28;20384;-82
2022/09/09 05:45:07;;;;;;;;;;;14.80;99.90;;;;;;5051164;28;19921;-81
2022/09/09 05:47:33;;;;;;;;;;;14.80;99.90;;;;;;5050864;28;19921;-82
2022/09/09 05:49:58;;;;;;;;;;;14.80;99.90;;;;;;5050864;28;19920;-82
2022/09/09 05:52:26;;;;;;;;;;;14.80;99.90;;;;;;5050384;28;19927;-82
2022/09/09 05:54:51;;;;;;;;;;;14.80;99.90;;;;;;5050983;28;19920;-82
2022/09/09 05:57:18;;;;;;;;;;;14.90;99.90;;;;;;5050932;28;20440;-82
2022/09/09 05:59:44;;;;;;;;;;;14.90;99.90;;;;;;5050677;28;19925;-82
2022/09/09 06:02:09;;;;;;;;;;;14.90;99.90;;;;;;5033666;28;20016;-82
2022/09/09 06:04:35;;;;;;;;;;;14.90;99.90;;;;;;5034113;28;19947;-82
2022/09/09 06:07:01;;;;;;;;;;;14.90;99.90;;;;;;5050371;28;19924;-82
2022/09/09 06:09:26;;;;;;;;;;;14.90;99.90;;;;;;5050851;28;20263;-82
2022/09/09 06:11:52;;;;;;;;;;;14.90;99.90;;;;;;5050341;28;20450;-82
2022/09/09 06:14:21;;;;;;;;;;;14.90;99.90;;;;;;5050538;28;19925;-82
2022/09/09 06:16:47;;;;;;;;;;;14.90;99.90;;;;;;5033513;28;19921;-82
2022/09/09 06:19:12;;;;;;;;;;;14.90;99.90;;;;;;5051688;28;20028;-82
2022/09/09 06:21:38;;;;;;;;;;;15.00;99.90;;;;;;5050320;28;19971;-82
2022/09/09 06:24:04;;;;;;;;;;;15.00;99.90;;;;;;5050143;28;19921;-82
2022/09/09 06:26:31;;;;;;;;;;;15.00;99.90;;;;;;5050724;28;19920;-82
2022/09/09 06:28:57;;;;;;;;;;;15.00;99.90;;;;;;5050409;28;20325;-82
2022/09/09 06:31:24;;;;;;;;;;;15.00;99.90;;;;;;5033617;28;19928;-82
2022/09/09 06:33:51;;;;;;;;;;;15.00;99.90;;;;;;5033570;28;19931;-82
2022/09/09 06:36:18;;;;;;;;;;;15.10;99.90;;;;;;5028578;28;20046;-82
2022/09/09 06:38:43;;;;;;;;;;;15.10;99.90;;;;;;5039395;28;19921;-82
2022/09/09 06:41:10;;;;;;;;;;;15.10;99.90;;;;;;5037653;28;19928;-82
2022/09/09 06:43:35;;;;;;;;;;;15.10;99.90;;;;;;5072637;28;20404;-82
2022/09/09 06:46:02;;;;;;;;;;;15.20;99.90;;;;;;5056625;28;19921;-82
2022/09/09 06:48:28;;;;;;;;;;;15.20;99.90;;;;;;5038424;28;19925;-82
2022/09/09 06:51:01;;;;;;;;;;;15.20;99.90;;;;;;5038097;28;19921;-82
2022/09/09 06:53:27;;;;;;;;;;;15.30;99.90;;;;;;5071332;28;19925;-82
2022/09/09 06:55:52;;;;;;;;;;;15.30;99.90;;;;;;5072169;28;20496;-82
2022/09/09 06:58:18;;;;;;;;;;;15.30;99.90;;;;;;5056734;28;20302;-82
2022/09/09 07:00:43;;;;;;;;;;;15.30;99.90;;;;;;5037506;28;20454;-82
2022/09/09 07:03:09;;;;;;;;;;;15.40;99.90;;;;;;5038912;28;19928;-82
2022/09/09 07:05:35;;;;;;;;;;;15.50;99.90;;;;;;5039131;28;19928;-82
2022/09/09 07:08:00;;;;;;;;;;;15.50;99.90;;;;;;5037718;28;19929;-82
2022/09/09 07:10:26;;;;;;;;;;;15.60;99.90;;;;;;5073203;28;20003;-82
2022/09/09 07:12:52;;;;;;;;;;;15.60;99.90;;;;;;5030337;28;19976;-82
2022/09/09 07:15:18;;;;;;;;;;;15.70;99.90;;;;;;5066263;28;19921;-82
2022/09/09 07:17:44;;;;;;;;;;;15.70;99.90;;;;;;5051093;28;19920;-82
2022/09/09 07:20:10;;;;;;;;;;;15.80;99.90;;;;;;5053898;28;19929;-82
2022/09/09 07:22:35;;;;;;;;;;;15.90;99.90;;;;;;5048966;28;20465;-82
2022/09/09 07:25:02;;;;;;;;;;;15.90;99.90;;;;;;5052774;28;19932;-82
2022/09/09 07:27:27;;;;;;;;;;;16.00;99.90;;;;;;5052618;28;19979;-82
2022/09/09 07:29:54;;;;;;;;;;;16.00;99.90;;;;;;5052782;28;20345;-82
2022/09/09 07:32:20;;;;;;;;;;;16.00;99.90;;;;;;5053228;28;19928;-82
2022/09/09 07:34:46;;;;;;;;;;;16.00;99.90;;;;;;5053771;28;19951;-83
2022/09/09 07:37:13;;;;;;;;;;;16.10;99.90;;;;;;5052995;28;19964;-83
2022/09/09 07:39:39;;;;;;;;;;;16.10;99.90;;;;;;5053372;28;19931;-83
2022/09/09 07:42:04;;;;;;;;;;;16.20;99.90;;;;;;5053550;28;19921;-82
2022/09/09 07:44:32;;;;;;;;;;;16.30;99.90;;;;;;5086749;28;19925;-82
2022/09/09 07:46:57;;;;;;;;;;;16.30;99.90;;;;;;5035233;28;20461;-82
2022/09/09 07:49:23;;;;;;;;;;;16.40;99.90;;;;;;5086707;28;20003;-82
2022/09/09 07:51:49;;;;;;;;;;;16.40;99.90;;;;;;5053338;28;19927;-82
2022/09/09 07:54:19;;;;;;;;;;;16.50;99.90;;;;;;5053758;28;20374;-82
2022/09/09 07:56:45;;;;;;;;;;;16.50;99.90;;;;;;5053849;28;19927;-83
2022/09/09 07:59:11;;;;;;;;;;;16.50;99.90;;;;;;5086964;28;20380;-82
2022/09/09 08:01:42;;;;;;;;;;;16.60;99.90;;;;;;5053376;28;19928;-82
2022/09/09 08:04:09;;;;;;;;;;;16.60;99.90;;;;;;5087124;28;19974;-83
2022/09/09 08:06:36;;;;;;;;;;;16.60;99.90;;;;;;5053491;28;19964;-82
2022/09/09 08:09:01;;;;;;;;;;;16.60;99.90;;;;;;5053686;28;20333;-82
2022/09/09 08:11:27;;;;;;;;;;;16.70;99.90;;;;;;5053470;28;20374;-83
2022/09/09 08:13:53;;;;;;;;;;;16.70;99.90;;;;;;5052972;28;20390;-83
2022/09/09 08:16:23;;;;;;;;;;;16.70;99.90;;;;;;5052805;28;19921;-82
2022/09/09 08:18:53;;;;;;;;;;;16.80;99.90;;;;;;5053146;28;19947;-83
2022/09/09 08:21:21;;;;;;;;;;;16.90;99.90;;;;;;5052686;28;20039;-83
2022/09/09 08:23:47;;;;;;;;;;;16.90;99.90;;;;;;5036723;28;19928;-83
2022/09/09 08:26:14;;;;;;;;;;;17.00;99.90;;;;;;5036542;28;20014;-83
2022/09/09 08:28:40;;;;;;;;;;;17.10;99.90;;;;;;5052719;28;19925;-83
2022/09/09 08:31:10;;;;;;;;;;;17.10;99.90;;;;;;5052468;28;20431;-83
2022/09/09 08:33:37;;;;;;;;;;;17.10;99.90;;;;;;5053068;28;19935;-83
2022/09/09 08:36:03;;;;;;;;;;;17.20;99.90;;;;;;5036138;28;19921;-83
2022/09/09 08:38:29;;;;;;;;;;;17.20;99.90;;;;;;5053119;28;19928;-83
2022/09/09 08:41:00;;;;;;;;;;;17.20;99.90;;;;;;5051472;28;20421;-82
2022/09/09 08:43:28;;;;;;;;;;;17.20;99.90;;;;;;5052378;28;20300;-83
2022/09/09 08:46:01;;;;;;;;;;;17.20;99.90;;;;;;5035181;28;19928;-83
2022/09/09 08:48:27;;;;;;;;;;;17.30;99.90;;;;;;5052144;28;20401;-83
2022/09/09 08:50:52;;;;;;;;;;;17.30;99.90;;;;;;5051655;28;20019;-83
2022/09/09 08:53:30;;;;;;;;;;;17.40;99.90;;;;;;5052227;28;19975;-83
2022/09/09 08:56:03;;;;;;;;;;;17.40;99.90;;;;;;5035515;28;20365;-83
2022/09/09 08:58:30;;;;;;;;;;;17.50;99.90;;;;;;5035194;28;19921;-83
2022/09/09 09:01:12;;;;;;;;;;;17.70;99.90;;;;;;5051403;28;20375;-83
2022/09/09 09:03:57;;;;;;;;;;;17.70;99.90;;;;;;5052346;28;19921;-83
2022/09/09 09:06:37;;;;;;;;;;;17.60;99.90;;;;;;5051397;28;20389;-83
2022/09/09 09:09:22;;;;;;;;;;;17.70;99.90;;;;;;5052200;28;19924;-83
2022/09/09 09:11:50;;;;;;;;;;;17.70;99.90;;;;;;5051495;28;19927;-83
2022/09/09 09:14:21;;;;;;;;;;;17.70;99.90;;;;;;5051783;28;19922;-83
2022/09/09 09:16:50;;;;;;;;;;;17.70;99.90;;;;;;5051530;28;19932;-83
2022/09/09 09:19:16;;;;;;;;;;;17.80;99.90;;;;;;5053064;28;19928;-83
2022/09/09 09:21:43;;;;;;;;;;;17.80;99.90;;;;;;5052330;28;19927;-83
2022/09/09 09:24:35;;;;;;;;;;;17.80;99.90;;;;;;5049466;28;20015;-83
2022/09/09 09:27:10;;;;;;;;;;;17.80;99.90;;;;;;5041023;28;19924;-83
2022/09/09 09:29:36;;;;;;;;;;;17.90;99.90;;;;;;5039510;28;19929;-83
2022/09/09 09:32:03;;;;;;;;;;;18.00;99.90;;;;;;5032825;28;19921;-83
2022/09/09 09:34:28;;;;;;;;;;;18.10;99.90;;;;;;5046436;28;19921;-83
2022/09/09 09:36:56;;;;;;;;;;;18.20;99.90;;;;;;5047640;28;19921;-83
2022/09/09 09:39:25;;;;;;;;;;;18.40;99.90;;;;;;5014736;28;20405;-83
2022/09/09 09:41:51;;;;;;;;;;;18.60;99.90;;;;;;5029978;28;19931;-83
2022/09/09 09:44:27;;;;;;;;;;;18.80;99.90;;;;;;5050337;28;20011;-83
2022/09/09 09:47:04;;;;;;;;;;;18.80;99.90;;;;;;5031013;28;19921;-83
2022/09/09 09:49:30;;;;;;;;;;;18.90;99.90;;;;;;5048119;28;20375;-83
2022/09/09 09:51:59;;;;;;;;;;;18.90;99.90;;;;;;5047006;28;19955;-83
2022/09/09 09:54:28;;;;;;;;;;;18.80;99.90;;;;;;5047938;28;20003;-83
2022/09/09 09:56:54;;;;;;;;;;;18.80;99.90;;;;;;5031222;28;19993;-83
2022/09/09 09:59:20;;;;;;;;;;;18.90;99.90;;;;;;5030608;28;19925;-83
2022/09/09 10:01:46;;;;;;;;;;;18.90;99.90;;;;;;5031993;28;20279;-83
2022/09/09 10:04:20;;;;;;;;;;;18.90;99.90;;;;;;5030824;28;19928;-83
2022/09/09 10:06:46;;;;;;;;;;;18.90;99.90;;;;;;5013924;28;19925;-83
2022/09/09 10:09:28;;;;;;;;;;;19.00;99.90;;;;;;5014833;28;19932;-83
2022/09/09 10:12:09;;;;;;;;;;;19.00;99.90;;;;;;5030493;28;19925;-83
2022/09/09 10:14:46;;;;;;;;;;;19.00;99.90;;;;;;5030949;28;19929;-83
2022/09/09 10:17:31;;;;;;;;;;;19.00;99.90;;;;;;5046895;28;19925;-83
2022/09/09 10:20:11;;;;;;;;;;;19.00;99.90;;;;;;5030580;28;20414;-83
2022/09/09 10:22:39;;;;;;;;;;;19.00;99.90;;;;;;5013739;28;20045;-83
2022/09/09 10:25:20;;;;;;;;;;;18.90;99.90;;;;;;5030483;28;19921;-83
2022/09/09 10:27:58;;;;;;;;;;;18.90;99.90;;;;;;5030119;28;19983;-83
2022/09/09 10:30:48;;;;;;;;;;;19.10;99.90;;;;;;5014148;28;19970;-83
2022/09/09 10:33:23;;;;;;;;;;;19.20;99.90;;;;;;5030459;28;19921;-83
2022/09/09 10:35:48;;;;;;;;;;;19.30;99.90;;;;;;5030121;28;19967;-83
2022/09/09 10:38:14;;;;;;;;;;;19.50;99.90;;;;;;5030450;28;20336;-83
2022/09/09 10:40:56;;;;;;;;;;;19.50;99.90;;;;;;5031431;28;20415;-83
2022/09/09 10:43:40;;;;;;;;;;;19.40;99.90;;;;;;5030527;28;20073;-83
2022/09/09 10:46:12;;;;;;;;;;;19.40;99.90;;;;;;5031279;28;19921;-83
2022/09/09 10:48:49;;;;;;;;;;;19.50;99.90;;;;;;5030532;28;19928;-83
2022/09/09 10:51:23;;;;;;;;;;;19.60;99.90;;;;;;5029138;28;19921;-83
2022/09/09 10:53:48;;;;;;;;;;;19.70;99.90;;;;;;5034727;28;19924;-82
2022/09/09 10:56:15;;;;;;;;;;;19.80;99.90;;;;;;5034266;28;20332;-83
2022/09/09 10:58:48;;;;;;;;;;;20.00;99.90;;;;;;5037197;28;20382;-83
2022/09/09 11:01:37;;;;;;;;;;;20.10;99.90;;;;;;5059654;28;19925;-83
2022/09/09 11:04:13;;;;;;;;;;;20.20;99.90;;;;;;5044890;28;19924;-83
2022/09/09 11:06:40;;;;;;;;;;;20.20;99.90;;;;;;5035482;28;20444;-83
2022/09/09 11:09:13;;;;;;;;;;;20.10;99.90;;;;;;5033928;28;19972;-83
2022/09/09 11:11:42;;;;;;;;;;;20.00;99.90;;;;;;5035129;28;20268;-83
2022/09/09 11:14:13;;;;;;;;;;;20.10;99.90;;;;;;5034403;28;20279;-83
2022/09/09 11:16:40;;;;;;;;;;;20.10;99.90;;;;;;5050746;28;19921;-83
2022/09/09 11:19:15;;;;;;;;;;;20.20;99.90;;;;;;5017298;28;19921;-83
2022/09/09 11:21:44;;;;;;;;;;;20.30;99.90;;;;;;5045551;28;20545;-83
2022/09/09 11:24:26;;;;;;;;;;;20.40;99.90;;;;;;5060587;28;19975;-83
2022/09/09 11:27:09;;;;;;;;;;;20.40;99.90;;;;;;5045265;28;19924;-83
2022/09/09 11:29:47;;;;;;;;;;;20.50;99.90;;;;;;5061136;28;19964;-83
2022/09/09 11:32:22;;;;;;;;;;;20.60;99.90;;;;;;5043747;28;19921;-83
2022/09/09 11:34:56;;;;;;;;;;;20.70;99.90;;;;;;5044123;28;19925;-83
2022/09/09 11:37:40;;;;;;;;;;;20.60;99.90;;;;;;5028752;28;20362;-83
2022/09/09 11:40:06;;;;;;;;;;;20.50;99.90;;;;;;5053284;28;19983;-83
2022/09/09 11:42:31;;;;;;;;;;;20.40;99.90;;;;;;5052710;28;19924;-83
2022/09/09 11:44:57;;;;;;;;;;;20.30;99.90;;;;;;5053324;28;19925;-83
2022/09/09 11:47:29;;;;;;;;;;;20.30;99.90;;;;;;5036485;28;19920;-83
2022/09/09 11:50:10;;;;;;;;;;;20.20;99.90;;;;;;5052848;28;19921;-84
2022/09/09 11:52:35;;;;;;;;;;;20.20;99.90;;;;;;5053103;28;19956;-83
2022/09/09 11:55:08;;;;;;;;;;;20.10;99.90;;;;;;5053109;28;19964;-83
2022/09/09 11:57:35;;;;;;;;;;;20.20;99.90;;;;;;5036351;28;19921;-83
2022/09/09 12:00:00;;;;;;;;;;;20.20;99.90;;;;;;5086666;28;19925;-83
2022/09/09 12:02:27;;;;;;;;;;;20.30;99.90;;;;;;5086192;28;19970;-83
2022/09/09 12:04:56;;;;;;;;;;;20.30;99.90;;;;;;5052216;28;19927;-83
2022/09/09 12:07:24;;;;;;;;;;;20.50;99.90;;;;;;5052932;28;19925;-83
2022/09/09 12:10:23;;;;;;;;;;;20.60;99.90;;;;;;5053362;28;20401;-83
2022/09/09 12:12:48;;;;;;;;;;;20.70;99.90;;;;;;5048031;28;20496;-84
2022/09/09 12:15:21;;;;;;;;;;;20.70;99.90;;;;;;5048272;28;19921;-83
2022/09/09 12:17:51;;;;;;;;;;;20.70;99.90;;;;;;5015005;28;19928;-83
2022/09/09 12:20:17;;;;;;;;;;;20.70;99.90;;;;;;5015160;28;20501;-83
2022/09/09 12:22:45;;;;;;;;;;;20.60;99.90;;;;;;5014750;28;19922;-83
2022/09/09 12:25:22;;;;;;;;;;;20.50;99.90;;;;;;5014896;28;20390;-83
2022/09/09 12:28:02;;;;;;;;;;;20.60;99.90;;;;;;4998799;28;19921;-83
2022/09/09 12:30:30;;;;;;;;;;;20.50;99.90;;;;;;5015259;28;19960;-83
2022/09/09 12:33:01;;;;;;;;;;;20.60;99.90;;;;;;5014273;28;19932;-83
2022/09/09 12:35:27;;;;;;;;;;;20.50;99.90;;;;;;4998702;28;19929;-83
2022/09/09 12:37:58;;;;;;;;;;;20.50;99.90;;;;;;5013868;28;19962;-83
2022/09/09 12:40:25;;;;;;;;;;;20.50;99.90;;;;;;5010836;28;19929;-83
2022/09/09 12:42:51;;;;;;;;;;;20.40;99.90;;;;;;5011955;28;19960;-83
2022/09/09 12:45:18;;;;;;;;;;;20.40;99.90;;;;;;4989494;28;20114;-83
2022/09/09 12:47:51;;;;;;;;;;;20.30;99.90;;;;;;4998742;28;19925;-83
2022/09/09 12:50:37;;;;;;;;;;;20.30;99.90;;;;;;5039111;28;19956;-83
2022/09/09 12:53:29;;;;;;;;;;;20.30;99.90;;;;;;5051414;28;19936;-83
2022/09/09 12:56:02;;;;;;;;;;;20.20;99.90;;;;;;5049383;28;19921;-83
2022/09/09 12:58:32;;;;;;;;;;;20.20;99.90;;;;;;5052272;28;20006;-83
2022/09/09 13:00:58;;;;;;;;;;;20.10;99.90;;;;;;5085026;28;19925;-84
2022/09/09 13:03:27;;;;;;;;;;;20.00;99.90;;;;;;5051706;28;19928;-83
2022/09/09 13:05:53;;;;;;;;;;;19.90;99.90;;;;;;5085162;28;20365;-83
2022/09/09 13:08:22;;;;;;;;;;;19.90;99.90;;;;;;5053356;28;19921;-84
2022/09/09 13:10:47;;;;;;;;;;;20.00;99.90;;;;;;5051503;28;19920;-83
2022/09/09 13:13:15;;;;;;;;;;;20.00;99.90;;;;;;5051924;28;20007;-83
2022/09/09 13:15:48;;;;;;;;;;;20.20;99.90;;;;;;5050644;28;19924;-84
2022/09/09 13:18:14;;;;;;;;;;;20.50;99.90;;;;;;5051218;28;20019;-83
2022/09/09 13:20:46;;;;;;;;;;;20.90;99.90;;;;;;5051589;28;20363;-84
2022/09/09 13:23:12;;;;;;;;;;;21.30;99.90;;;;;;5051670;28;19984;-83
2022/09/09 13:25:38;;;;;;;;;;;21.60;99.90;;;;;;5034563;28;19921;-84
2022/09/09 13:28:04;;;;;;;;;;;21.60;99.90;;;;;;5051541;28;19921;-84
2022/09/09 13:30:39;;;;;;;;;;;21.50;99.90;;;;;;5051627;28;19964;-83
2022/09/09 13:33:08;;;;;;;;;;;21.40;99.90;;;;;;5050973;28;19925;-84
2022/09/09 13:35:35;;;;;;;;;;;21.30;99.90;;;;;;5051658;28;19921;-83
2022/09/09 13:38:08;;;;;;;;;;;21.20;99.90;;;;;;5051218;28;19921;-84
2022/09/09 13:40:34;;;;;;;;;;;21.10;99.90;;;;;;5084691;28;19947;-83
2022/09/09 13:42:59;;;;;;;;;;;21.00;99.90;;;;;;5050320;28;20406;-83
2022/09/09 13:45:28;;;;;;;;;;;20.90;99.90;;;;;;5034677;28;19921;-83
2022/09/09 13:47:55;;;;;;;;;;;20.80;99.90;;;;;;5050911;28;19951;-84
2022/09/09 13:50:25;;;;;;;;;;;20.80;99.90;;;;;;5051315;28;19925;-84
2022/09/09 13:52:53;;;;;;;;;;;20.90;99.90;;;;;;5050765;28;19928;-83
2022/09/09 13:55:19;;;;;;;;;;;20.80;99.90;;;;;;5050649;28;19929;-83
2022/09/09 13:57:51;;;;;;;;;;;20.60;99.90;;;;;;5084690;28;20301;-83
2022/09/09 14:00:17;;;;;;;;;;;20.50;99.90;;;;;;5050733;28;19932;-83
2022/09/09 14:02:43;;;;;;;;;;;20.40;99.90;;;;;;5050546;28;19921;-83
2022/09/09 14:05:10;;;;;;;;;;;20.10;99.90;;;;;;5034278;28;19925;-84
2022/09/09 14:07:37;;;;;;;;;;;19.70;99.90;;;;;;5050728;28;19921;-83
2022/09/09 14:10:03;;;;;;;;;;;19.30;99.90;;;;;;5050725;28;19921;-83
2022/09/09 14:12:28;;;;;;;;;;;19.00;99.90;;;;;;5050174;28;20019;-83
2022/09/09 14:14:54;;;;;;;;;;;18.90;99.90;;;;;;5050853;28;20008;-83
2022/09/09 14:17:19;;;;;;;;;;;18.80;99.90;;;;;;5051459;28;19921;-83
2022/09/09 14:19:45;;;;;;;;;;;18.70;99.90;;;;;;5050824;28;19925;-83
2022/09/09 14:22:12;;;;;;;;;;;18.70;99.90;;;;;;5050483;28;19999;-83
2022/09/09 14:24:37;;;;;;;;;;;18.80;99.90;;;;;;5083045;28;20561;-83
2022/09/09 14:27:03;;;;;;;;;;;18.90;99.90;;;;;;5082762;28;19927;-83
2022/09/09 14:29:28;;;;;;;;;;;19.10;99.90;;;;;;5034497;28;19921;-83